sensor_id;sensor_type;location;lat;lon;timestamp;P1;durP1;ratioP1;P2;durP2;ratioP2
30398;SDS011;17195;50.838;7.214;2024-01-30T00:00:58;13.85;;;9.48;;
30398;SDS011;17195;50.838;7.214;2024-01-30T00:03:24;16.10;;;9.77;;
30398;SDS011;17195;50.838;7.214;2024-01-30T00:05:49;18.17;;;10.20;;
30398;SDS011;17195;50.838;7.214;2024-01-30T00:08:15;21.00;;;12.63;;
30398;SDS011;17195;50.838;7.214;2024-01-30T00:10:41;22.40;;;12.70;;
30398;SDS011;17195;50.838;7.214;2024-01-30T00:13:06;18.52;;;10.88;;
30398;SDS011;17195;50.838;7.214;2024-01-30T00:15:32;20.42;;;11.73;;
30398;SDS011;17195;50.838;7.214;2024-01-30T00:17:57;17.48;;;10.95;;
30398;SDS011;17195;50.838;7.214;2024-01-30T00:20:23;17.67;;;11.30;;
30398;SDS011;17195;50.838;7.214;2024-01-30T00:22:49;20.90;;;11.93;;
30398;SDS011;17195;50.838;7.214;2024-01-30T00:25:14;21.05;;;11.20;;
30398;SDS011;17195;50.838;7.214;2024-01-30T00:27:40;19.08;;;12.15;;
30398;SDS011;17195;50.838;7.214;2024-01-30T00:30:06;16.17;;;10.82;;
30398;SDS011;17195;50.838;7.214;2024-01-30T00:32:32;17.75;;;10.52;;
30398;SDS011;17195;50.838;7.214;2024-01-30T00:34:58;19.40;;;11.05;;
30398;SDS011;17195;50.838;7.214;2024-01-30T00:37:23;19.85;;;11.02;;
30398;SDS011;17195;50.838;7.214;2024-01-30T00:39:49;20.48;;;11.27;;
30398;SDS011;17195;50.838;7.214;2024-01-30T00:42:15;17.13;;;10.98;;
30398;SDS011;17195;50.838;7.214;2024-01-30T00:44:40;18.05;;;11.00;;
30398;SDS011;17195;50.838;7.214;2024-01-30T00:47:06;16.60;;;10.13;;
30398;SDS011;17195;50.838;7.214;2024-01-30T00:49:31;17.95;;;11.27;;
30398;SDS011;17195;50.838;7.214;2024-01-30T00:51:57;21.10;;;11.75;;
30398;SDS011;17195;50.838;7.214;2024-01-30T00:54:22;17.90;;;10.48;;
30398;SDS011;17195;50.838;7.214;2024-01-30T00:56:48;18.27;;;10.55;;
30398;SDS011;17195;50.838;7.214;2024-01-30T00:59:13;16.40;;;10.68;;
30398;SDS011;17195;50.838;7.214;2024-01-30T01:01:39;20.95;;;10.98;;
30398;SDS011;17195;50.838;7.214;2024-01-30T01:04:05;15.68;;;9.18;;
30398;SDS011;17195;50.838;7.214;2024-01-30T01:06:30;26.60;;;16.30;;
30398;SDS011;17195;50.838;7.214;2024-01-30T01:08:56;22.45;;;13.55;;
30398;SDS011;17195;50.838;7.214;2024-01-30T01:11:21;18.20;;;11.50;;
30398;SDS011;17195;50.838;7.214;2024-01-30T01:13:47;20.08;;;11.45;;
30398;SDS011;17195;50.838;7.214;2024-01-30T01:16:13;17.05;;;10.23;;
30398;SDS011;17195;50.838;7.214;2024-01-30T01:18:38;19.55;;;10.90;;
30398;SDS011;17195;50.838;7.214;2024-01-30T01:21:04;18.70;;;11.25;;
30398;SDS011;17195;50.838;7.214;2024-01-30T01:23:29;20.23;;;10.30;;
30398;SDS011;17195;50.838;7.214;2024-01-30T01:25:55;21.42;;;11.30;;
30398;SDS011;17195;50.838;7.214;2024-01-30T01:28:20;16.23;;;9.98;;
30398;SDS011;17195;50.838;7.214;2024-01-30T01:30:46;19.05;;;10.20;;
30398;SDS011;17195;50.838;7.214;2024-01-30T01:33:12;16.65;;;8.73;;
30398;SDS011;17195;50.838;7.214;2024-01-30T01:35:39;15.15;;;9.48;;
30398;SDS011;17195;50.838;7.214;2024-01-30T01:38:05;15.88;;;9.00;;
30398;SDS011;17195;50.838;7.214;2024-01-30T01:40:30;14.90;;;8.48;;
30398;SDS011;17195;50.838;7.214;2024-01-30T01:42:56;13.50;;;8.25;;
30398;SDS011;17195;50.838;7.214;2024-01-30T01:45:22;13.88;;;7.72;;
30398;SDS011;17195;50.838;7.214;2024-01-30T01:47:48;12.80;;;8.77;;
30398;SDS011;17195;50.838;7.214;2024-01-30T01:50:16;10.93;;;7.22;;
30398;SDS011;17195;50.838;7.214;2024-01-30T01:52:43;17.45;;;8.30;;
30398;SDS011;17195;50.838;7.214;2024-01-30T01:55:10;12.38;;;7.80;;
30398;SDS011;17195;50.838;7.214;2024-01-30T01:57:36;12.35;;;7.55;;
30398;SDS011;17195;50.838;7.214;2024-01-30T02:00:02;12.02;;;7.28;;
30398;SDS011;17195;50.838;7.214;2024-01-30T02:02:30;11.23;;;7.60;;
30398;SDS011;17195;50.838;7.214;2024-01-30T02:04:59;14.82;;;7.40;;
30398;SDS011;17195;50.838;7.214;2024-01-30T02:07:25;12.38;;;7.93;;
30398;SDS011;17195;50.838;7.214;2024-01-30T02:09:50;12.93;;;7.07;;
30398;SDS011;17195;50.838;7.214;2024-01-30T02:12:16;12.68;;;7.70;;
30398;SDS011;17195;50.838;7.214;2024-01-30T02:14:45;12.88;;;8.68;;
30398;SDS011;17195;50.838;7.214;2024-01-30T02:17:11;13.13;;;8.43;;
30398;SDS011;17195;50.838;7.214;2024-01-30T02:19:37;14.35;;;8.63;;
30398;SDS011;17195;50.838;7.214;2024-01-30T02:22:03;12.88;;;8.57;;
30398;SDS011;17195;50.838;7.214;2024-01-30T02:24:29;12.23;;;7.95;;
30398;SDS011;17195;50.838;7.214;2024-01-30T02:26:54;12.65;;;8.38;;
30398;SDS011;17195;50.838;7.214;2024-01-30T02:29:20;12.18;;;7.65;;
30398;SDS011;17195;50.838;7.214;2024-01-30T02:31:46;13.00;;;8.20;;
30398;SDS011;17195;50.838;7.214;2024-01-30T02:34:11;11.60;;;7.47;;
30398;SDS011;17195;50.838;7.214;2024-01-30T02:36:37;13.60;;;8.05;;
30398;SDS011;17195;50.838;7.214;2024-01-30T02:39:02;11.30;;;7.10;;
30398;SDS011;17195;50.838;7.214;2024-01-30T02:41:28;11.45;;;7.15;;
30398;SDS011;17195;50.838;7.214;2024-01-30T02:43:54;12.82;;;8.15;;
30398;SDS011;17195;50.838;7.214;2024-01-30T02:46:19;12.63;;;7.82;;
30398;SDS011;17195;50.838;7.214;2024-01-30T02:48:45;12.68;;;7.63;;
30398;SDS011;17195;50.838;7.214;2024-01-30T02:51:10;13.85;;;8.45;;
30398;SDS011;17195;50.838;7.214;2024-01-30T02:53:36;11.48;;;8.73;;
30398;SDS011;17195;50.838;7.214;2024-01-30T02:56:02;15.15;;;9.30;;
30398;SDS011;17195;50.838;7.214;2024-01-30T02:58:28;12.93;;;9.20;;
30398;SDS011;17195;50.838;7.214;2024-01-30T03:00:54;13.15;;;9.52;;
30398;SDS011;17195;50.838;7.214;2024-01-30T03:03:19;16.23;;;9.98;;
30398;SDS011;17195;50.838;7.214;2024-01-30T03:05:45;13.02;;;9.35;;
30398;SDS011;17195;50.838;7.214;2024-01-30T03:08:10;12.35;;;8.70;;
30398;SDS011;17195;50.838;7.214;2024-01-30T03:10:36;14.38;;;9.52;;
30398;SDS011;17195;50.838;7.214;2024-01-30T03:13:01;16.33;;;8.98;;
30398;SDS011;17195;50.838;7.214;2024-01-30T03:15:27;11.85;;;8.07;;
30398;SDS011;17195;50.838;7.214;2024-01-30T03:17:53;15.35;;;8.65;;
30398;SDS011;17195;50.838;7.214;2024-01-30T03:20:19;12.65;;;7.85;;
30398;SDS011;17195;50.838;7.214;2024-01-30T03:22:44;14.70;;;7.78;;
30398;SDS011;17195;50.838;7.214;2024-01-30T03:25:10;12.85;;;8.05;;
30398;SDS011;17195;50.838;7.214;2024-01-30T03:27:35;21.75;;;11.75;;
30398;SDS011;17195;50.838;7.214;2024-01-30T03:30:01;21.27;;;11.10;;
30398;SDS011;17195;50.838;7.214;2024-01-30T03:32:27;15.10;;;8.35;;
30398;SDS011;17195;50.838;7.214;2024-01-30T03:34:53;11.70;;;7.57;;
30398;SDS011;17195;50.838;7.214;2024-01-30T03:37:18;13.45;;;7.65;;
30398;SDS011;17195;50.838;7.214;2024-01-30T03:39:44;13.48;;;7.93;;
30398;SDS011;17195;50.838;7.214;2024-01-30T03:42:09;13.75;;;7.47;;
30398;SDS011;17195;50.838;7.214;2024-01-30T03:44:35;13.00;;;7.57;;
30398;SDS011;17195;50.838;7.214;2024-01-30T03:47:00;11.73;;;7.20;;
30398;SDS011;17195;50.838;7.214;2024-01-30T03:49:26;11.20;;;8.25;;
30398;SDS011;17195;50.838;7.214;2024-01-30T03:51:51;13.00;;;7.70;;
30398;SDS011;17195;50.838;7.214;2024-01-30T03:54:17;10.88;;;7.55;;
30398;SDS011;17195;50.838;7.214;2024-01-30T03:56:42;11.13;;;7.15;;
30398;SDS011;17195;50.838;7.214;2024-01-30T03:59:08;13.30;;;7.95;;
30398;SDS011;17195;50.838;7.214;2024-01-30T04:01:33;15.20;;;7.20;;
30398;SDS011;17195;50.838;7.214;2024-01-30T04:03:59;13.05;;;7.68;;
30398;SDS011;17195;50.838;7.214;2024-01-30T04:06:24;11.80;;;7.03;;
30398;SDS011;17195;50.838;7.214;2024-01-30T04:08:51;13.30;;;8.43;;
30398;SDS011;17195;50.838;7.214;2024-01-30T04:11:18;14.02;;;8.50;;
30398;SDS011;17195;50.838;7.214;2024-01-30T04:13:44;12.38;;;7.82;;
30398;SDS011;17195;50.838;7.214;2024-01-30T04:16:18;12.43;;;8.13;;
30398;SDS011;17195;50.838;7.214;2024-01-30T04:18:45;11.80;;;7.87;;
30398;SDS011;17195;50.838;7.214;2024-01-30T04:21:11;10.15;;;7.30;;
30398;SDS011;17195;50.838;7.214;2024-01-30T04:23:37;11.63;;;6.50;;
30398;SDS011;17195;50.838;7.214;2024-01-30T04:26:02;11.65;;;6.40;;
30398;SDS011;17195;50.838;7.214;2024-01-30T04:28:28;9.93;;;7.03;;
30398;SDS011;17195;50.838;7.214;2024-01-30T04:30:53;9.27;;;6.80;;
30398;SDS011;17195;50.838;7.214;2024-01-30T04:33:19;13.13;;;7.05;;
30398;SDS011;17195;50.838;7.214;2024-01-30T04:35:44;12.05;;;7.70;;
30398;SDS011;17195;50.838;7.214;2024-01-30T04:38:10;11.05;;;7.47;;
30398;SDS011;17195;50.838;7.214;2024-01-30T04:40:35;11.57;;;7.72;;
30398;SDS011;17195;50.838;7.214;2024-01-30T04:43:01;13.32;;;7.68;;
30398;SDS011;17195;50.838;7.214;2024-01-30T04:45:27;11.95;;;7.70;;
30398;SDS011;17195;50.838;7.214;2024-01-30T04:47:52;11.50;;;7.43;;
30398;SDS011;17195;50.838;7.214;2024-01-30T04:50:18;12.43;;;7.95;;
30398;SDS011;17195;50.838;7.214;2024-01-30T04:52:44;11.30;;;8.00;;
30398;SDS011;17195;50.838;7.214;2024-01-30T04:55:09;10.18;;;7.22;;
30398;SDS011;17195;50.838;7.214;2024-01-30T04:57:35;8.45;;;6.85;;
30398;SDS011;17195;50.838;7.214;2024-01-30T05:00:00;11.15;;;7.80;;
30398;SDS011;17195;50.838;7.214;2024-01-30T05:02:26;14.40;;;7.90;;
30398;SDS011;17195;50.838;7.214;2024-01-30T05:04:52;13.68;;;8.60;;
30398;SDS011;17195;50.838;7.214;2024-01-30T05:07:17;12.80;;;8.18;;
30398;SDS011;17195;50.838;7.214;2024-01-30T05:09:43;13.35;;;8.00;;
30398;SDS011;17195;50.838;7.214;2024-01-30T05:12:09;10.75;;;7.53;;
30398;SDS011;17195;50.838;7.214;2024-01-30T05:14:34;9.38;;;6.93;;
30398;SDS011;17195;50.838;7.214;2024-01-30T05:16:59;21.15;;;8.02;;
30398;SDS011;17195;50.838;7.214;2024-01-30T05:19:25;11.10;;;6.95;;
30398;SDS011;17195;50.838;7.214;2024-01-30T05:21:51;13.23;;;7.53;;
30398;SDS011;17195;50.838;7.214;2024-01-30T05:24:16;13.15;;;7.82;;
30398;SDS011;17195;50.838;7.214;2024-01-30T05:26:42;12.88;;;7.85;;
30398;SDS011;17195;50.838;7.214;2024-01-30T05:29:07;14.00;;;8.25;;
30398;SDS011;17195;50.838;7.214;2024-01-30T05:31:36;13.90;;;8.00;;
30398;SDS011;17195;50.838;7.214;2024-01-30T05:34:01;11.50;;;7.50;;
30398;SDS011;17195;50.838;7.214;2024-01-30T05:36:27;13.57;;;7.47;;
30398;SDS011;17195;50.838;7.214;2024-01-30T05:38:52;14.32;;;7.85;;
30398;SDS011;17195;50.838;7.214;2024-01-30T05:41:19;12.23;;;8.10;;
30398;SDS011;17195;50.838;7.214;2024-01-30T05:43:46;11.57;;;7.38;;
30398;SDS011;17195;50.838;7.214;2024-01-30T05:46:11;11.65;;;7.45;;
30398;SDS011;17195;50.838;7.214;2024-01-30T05:48:37;9.88;;;7.13;;
30398;SDS011;17195;50.838;7.214;2024-01-30T05:51:02;11.73;;;7.28;;
30398;SDS011;17195;50.838;7.214;2024-01-30T05:53:29;10.00;;;7.43;;
30398;SDS011;17195;50.838;7.214;2024-01-30T05:55:54;10.82;;;7.93;;
30398;SDS011;17195;50.838;7.214;2024-01-30T05:58:20;11.93;;;8.30;;
30398;SDS011;17195;50.838;7.214;2024-01-30T06:00:46;15.00;;;8.85;;
30398;SDS011;17195;50.838;7.214;2024-01-30T06:03:12;16.73;;;9.18;;
30398;SDS011;17195;50.838;7.214;2024-01-30T06:05:37;16.80;;;9.35;;
30398;SDS011;17195;50.838;7.214;2024-01-30T06:08:03;12.35;;;8.65;;
30398;SDS011;17195;50.838;7.214;2024-01-30T06:10:29;15.45;;;9.07;;
30398;SDS011;17195;50.838;7.214;2024-01-30T06:12:54;15.48;;;9.18;;
30398;SDS011;17195;50.838;7.214;2024-01-30T06:15:20;16.75;;;10.07;;
30398;SDS011;17195;50.838;7.214;2024-01-30T06:17:45;16.67;;;10.23;;
30398;SDS011;17195;50.838;7.214;2024-01-30T06:20:11;20.63;;;12.80;;
30398;SDS011;17195;50.838;7.214;2024-01-30T06:22:36;20.98;;;12.98;;
30398;SDS011;17195;50.838;7.214;2024-01-30T06:25:02;20.55;;;13.18;;
30398;SDS011;17195;50.838;7.214;2024-01-30T06:27:28;19.15;;;12.55;;
30398;SDS011;17195;50.838;7.214;2024-01-30T06:29:53;22.10;;;12.30;;
30398;SDS011;17195;50.838;7.214;2024-01-30T06:32:19;17.75;;;11.50;;
30398;SDS011;17195;50.838;7.214;2024-01-30T06:34:44;24.02;;;13.23;;
30398;SDS011;17195;50.838;7.214;2024-01-30T06:37:10;24.45;;;13.32;;
30398;SDS011;17195;50.838;7.214;2024-01-30T06:39:35;24.90;;;14.27;;
30398;SDS011;17195;50.838;7.214;2024-01-30T06:42:01;20.23;;;12.27;;
30398;SDS011;17195;50.838;7.214;2024-01-30T06:44:27;21.27;;;13.65;;
30398;SDS011;17195;50.838;7.214;2024-01-30T06:46:53;23.13;;;13.48;;
30398;SDS011;17195;50.838;7.214;2024-01-30T06:49:18;23.13;;;13.07;;
30398;SDS011;17195;50.838;7.214;2024-01-30T06:51:44;18.60;;;12.95;;
30398;SDS011;17195;50.838;7.214;2024-01-30T06:54:09;21.48;;;12.73;;
30398;SDS011;17195;50.838;7.214;2024-01-30T06:56:35;18.10;;;11.02;;
30398;SDS011;17195;50.838;7.214;2024-01-30T06:59:00;17.60;;;10.52;;
30398;SDS011;17195;50.838;7.214;2024-01-30T07:01:29;21.15;;;12.88;;
30398;SDS011;17195;50.838;7.214;2024-01-30T07:03:55;20.38;;;11.75;;
30398;SDS011;17195;50.838;7.214;2024-01-30T07:06:21;18.73;;;10.52;;
30398;SDS011;17195;50.838;7.214;2024-01-30T07:08:47;13.30;;;8.35;;
30398;SDS011;17195;50.838;7.214;2024-01-30T07:11:20;10.10;;;7.40;;
30398;SDS011;17195;50.838;7.214;2024-01-30T07:16:17;11.93;;;8.38;;
30398;SDS011;17195;50.838;7.214;2024-01-30T07:18:43;14.05;;;8.85;;
30398;SDS011;17195;50.838;7.214;2024-01-30T07:21:09;16.23;;;8.65;;
30398;SDS011;17195;50.838;7.214;2024-01-30T07:23:34;15.85;;;8.57;;
30398;SDS011;17195;50.838;7.214;2024-01-30T07:26:01;13.13;;;9.50;;
30398;SDS011;17195;50.838;7.214;2024-01-30T07:28:26;13.75;;;9.77;;
30398;SDS011;17195;50.838;7.214;2024-01-30T07:30:52;16.92;;;9.68;;
30398;SDS011;17195;50.838;7.214;2024-01-30T07:33:17;13.40;;;9.90;;
30398;SDS011;17195;50.838;7.214;2024-01-30T07:35:43;13.95;;;9.63;;
30398;SDS011;17195;50.838;7.214;2024-01-30T07:38:10;12.20;;;9.38;;
30398;SDS011;17195;50.838;7.214;2024-01-30T07:40:35;15.48;;;9.23;;
30398;SDS011;17195;50.838;7.214;2024-01-30T07:43:01;13.82;;;9.40;;
30398;SDS011;17195;50.838;7.214;2024-01-30T07:45:28;19.40;;;10.98;;
30398;SDS011;17195;50.838;7.214;2024-01-30T07:47:57;20.45;;;10.63;;
30398;SDS011;17195;50.838;7.214;2024-01-30T07:50:24;15.55;;;9.98;;
30398;SDS011;17195;50.838;7.214;2024-01-30T07:52:50;16.52;;;10.93;;
30398;SDS011;17195;50.838;7.214;2024-01-30T07:55:19;16.38;;;10.25;;
30398;SDS011;17195;50.838;7.214;2024-01-30T07:57:53;16.25;;;9.70;;
30398;SDS011;17195;50.838;7.214;2024-01-30T08:00:22;18.92;;;10.93;;
30398;SDS011;17195;50.838;7.214;2024-01-30T08:02:48;16.25;;;10.02;;
30398;SDS011;17195;50.838;7.214;2024-01-30T08:05:13;15.45;;;10.45;;
30398;SDS011;17195;50.838;7.214;2024-01-30T08:07:40;16.23;;;10.73;;
30398;SDS011;17195;50.838;7.214;2024-01-30T08:10:07;17.42;;;11.02;;
30398;SDS011;17195;50.838;7.214;2024-01-30T08:12:33;14.25;;;10.18;;
30398;SDS011;17195;50.838;7.214;2024-01-30T08:14:59;18.50;;;10.25;;
30398;SDS011;17195;50.838;7.214;2024-01-30T08:17:24;19.88;;;10.57;;
30398;SDS011;17195;50.838;7.214;2024-01-30T08:19:50;15.13;;;10.02;;
30398;SDS011;17195;50.838;7.214;2024-01-30T08:22:15;17.77;;;10.20;;
30398;SDS011;17195;50.838;7.214;2024-01-30T08:24:41;14.88;;;9.88;;
30398;SDS011;17195;50.838;7.214;2024-01-30T08:27:07;17.77;;;10.45;;
30398;SDS011;17195;50.838;7.214;2024-01-30T08:29:34;14.23;;;10.63;;
30398;SDS011;17195;50.838;7.214;2024-01-30T08:32:00;18.52;;;9.48;;
30398;SDS011;17195;50.838;7.214;2024-01-30T08:34:26;15.60;;;9.40;;
30398;SDS011;17195;50.838;7.214;2024-01-30T08:36:52;11.65;;;8.50;;
30398;SDS011;17195;50.838;7.214;2024-01-30T08:39:17;13.95;;;8.38;;
30398;SDS011;17195;50.838;7.214;2024-01-30T08:41:43;16.58;;;9.38;;
30398;SDS011;17195;50.838;7.214;2024-01-30T08:44:09;13.70;;;8.13;;
30398;SDS011;17195;50.838;7.214;2024-01-30T08:46:36;16.92;;;9.05;;
30398;SDS011;17195;50.838;7.214;2024-01-30T08:49:01;14.20;;;7.70;;
30398;SDS011;17195;50.838;7.214;2024-01-30T08:51:29;22.17;;;9.90;;
30398;SDS011;17195;50.838;7.214;2024-01-30T08:53:54;22.13;;;10.52;;
30398;SDS011;17195;50.838;7.214;2024-01-30T08:56:20;17.55;;;10.25;;
30398;SDS011;17195;50.838;7.214;2024-01-30T08:58:45;18.90;;;10.43;;
30398;SDS011;17195;50.838;7.214;2024-01-30T09:01:11;16.00;;;10.50;;
30398;SDS011;17195;50.838;7.214;2024-01-30T09:03:37;21.90;;;10.73;;
30398;SDS011;17195;50.838;7.214;2024-01-30T09:06:08;19.13;;;10.35;;
30398;SDS011;17195;50.838;7.214;2024-01-30T09:08:34;24.45;;;9.75;;
30398;SDS011;17195;50.838;7.214;2024-01-30T09:10:59;19.33;;;10.30;;
30398;SDS011;17195;50.838;7.214;2024-01-30T09:13:25;19.77;;;10.52;;
30398;SDS011;17195;50.838;7.214;2024-01-30T09:15:50;19.80;;;9.75;;
30398;SDS011;17195;50.838;7.214;2024-01-30T09:18:16;24.17;;;10.52;;
30398;SDS011;17195;50.838;7.214;2024-01-30T09:20:41;14.40;;;9.75;;
30398;SDS011;17195;50.838;7.214;2024-01-30T09:23:07;16.75;;;9.77;;
30398;SDS011;17195;50.838;7.214;2024-01-30T09:25:33;12.57;;;8.48;;
30398;SDS011;17195;50.838;7.214;2024-01-30T09:27:59;14.75;;;9.95;;
30398;SDS011;17195;50.838;7.214;2024-01-30T09:30:24;13.57;;;9.38;;
30398;SDS011;17195;50.838;7.214;2024-01-30T09:32:50;16.77;;;9.48;;
30398;SDS011;17195;50.838;7.214;2024-01-30T09:35:16;15.35;;;9.20;;
30398;SDS011;17195;50.838;7.214;2024-01-30T09:37:41;16.73;;;10.18;;
30398;SDS011;17195;50.838;7.214;2024-01-30T09:40:07;12.85;;;8.77;;
30398;SDS011;17195;50.838;7.214;2024-01-30T09:42:34;15.10;;;9.50;;
30398;SDS011;17195;50.838;7.214;2024-01-30T09:45:04;28.35;;;17.98;;
30398;SDS011;17195;50.838;7.214;2024-01-30T09:47:40;19.48;;;9.60;;
30398;SDS011;17195;50.838;7.214;2024-01-30T09:50:10;13.40;;;9.77;;
30398;SDS011;17195;50.838;7.214;2024-01-30T09:52:36;24.85;;;9.60;;
30398;SDS011;17195;50.838;7.214;2024-01-30T09:55:03;13.23;;;8.00;;
30398;SDS011;17195;50.838;7.214;2024-01-30T09:57:29;10.57;;;6.50;;
30398;SDS011;17195;50.838;7.214;2024-01-30T09:59:55;29.73;;;16.65;;
30398;SDS011;17195;50.838;7.214;2024-01-30T10:02:21;15.52;;;10.02;;
30398;SDS011;17195;50.838;7.214;2024-01-30T10:04:47;45.38;;;27.58;;
30398;SDS011;17195;50.838;7.214;2024-01-30T10:07:13;47.72;;;29.83;;
30398;SDS011;17195;50.838;7.214;2024-01-30T10:09:40;19.58;;;12.77;;
30398;SDS011;17195;50.838;7.214;2024-01-30T10:12:05;14.88;;;9.10;;
30398;SDS011;17195;50.838;7.214;2024-01-30T10:14:31;11.38;;;7.82;;
30398;SDS011;17195;50.838;7.214;2024-01-30T10:16:57;11.95;;;7.57;;
30398;SDS011;17195;50.838;7.214;2024-01-30T10:19:23;9.20;;;6.07;;
30398;SDS011;17195;50.838;7.214;2024-01-30T10:21:48;14.05;;;7.25;;
30398;SDS011;17195;50.838;7.214;2024-01-30T10:24:14;11.02;;;6.30;;
30398;SDS011;17195;50.838;7.214;2024-01-30T10:26:40;8.10;;;5.97;;
30398;SDS011;17195;50.838;7.214;2024-01-30T10:29:08;9.73;;;6.10;;
30398;SDS011;17195;50.838;7.214;2024-01-30T10:31:34;8.15;;;5.78;;
30398;SDS011;17195;50.838;7.214;2024-01-30T10:33:59;11.43;;;6.22;;
30398;SDS011;17195;50.838;7.214;2024-01-30T10:36:28;9.68;;;5.85;;
30398;SDS011;17195;50.838;7.214;2024-01-30T10:38:55;12.10;;;6.20;;
30398;SDS011;17195;50.838;7.214;2024-01-30T10:41:26;10.27;;;5.75;;
30398;SDS011;17195;50.838;7.214;2024-01-30T10:44:13;12.43;;;6.35;;
30398;SDS011;17195;50.838;7.214;2024-01-30T10:46:39;11.63;;;6.15;;
30398;SDS011;17195;50.838;7.214;2024-01-30T10:49:07;10.32;;;6.13;;
30398;SDS011;17195;50.838;7.214;2024-01-30T10:51:34;9.13;;;5.60;;
30398;SDS011;17195;50.838;7.214;2024-01-30T10:54:03;8.30;;;6.43;;
30398;SDS011;17195;50.838;7.214;2024-01-30T10:56:30;9.43;;;6.40;;
30398;SDS011;17195;50.838;7.214;2024-01-30T10:58:58;10.18;;;6.82;;
30398;SDS011;17195;50.838;7.214;2024-01-30T11:01:24;14.80;;;8.43;;
30398;SDS011;17195;50.838;7.214;2024-01-30T11:03:51;8.18;;;6.40;;
30398;SDS011;17195;50.838;7.214;2024-01-30T11:06:17;13.27;;;6.28;;
30398;SDS011;17195;50.838;7.214;2024-01-30T11:08:43;9.25;;;6.43;;
30398;SDS011;17195;50.838;7.214;2024-01-30T11:11:24;9.68;;;5.95;;
30398;SDS011;17195;50.838;7.214;2024-01-30T11:13:50;8.57;;;6.10;;
30398;SDS011;17195;50.838;7.214;2024-01-30T11:16:16;9.38;;;5.47;;
30398;SDS011;17195;50.838;7.214;2024-01-30T11:18:42;9.65;;;5.78;;
30398;SDS011;17195;50.838;7.214;2024-01-30T11:21:07;8.55;;;5.57;;
30398;SDS011;17195;50.838;7.214;2024-01-30T11:23:33;8.40;;;5.03;;
30398;SDS011;17195;50.838;7.214;2024-01-30T11:26:00;12.50;;;5.78;;
30398;SDS011;17195;50.838;7.214;2024-01-30T11:28:25;8.25;;;6.07;;
30398;SDS011;17195;50.838;7.214;2024-01-30T11:31:02;15.27;;;9.13;;
30398;SDS011;17195;50.838;7.214;2024-01-30T11:33:32;11.32;;;6.80;;
30398;SDS011;17195;50.838;7.214;2024-01-30T11:35:58;12.30;;;7.10;;
30398;SDS011;17195;50.838;7.214;2024-01-30T11:38:25;16.48;;;10.07;;
30398;SDS011;17195;50.838;7.214;2024-01-30T11:40:52;12.35;;;8.55;;
30398;SDS011;17195;50.838;7.214;2024-01-30T11:43:22;9.75;;;5.72;;
30398;SDS011;17195;50.838;7.214;2024-01-30T11:45:48;9.77;;;5.43;;
30398;SDS011;17195;50.838;7.214;2024-01-30T11:48:14;9.57;;;5.47;;
30398;SDS011;17195;50.838;7.214;2024-01-30T11:50:40;9.75;;;5.35;;
30398;SDS011;17195;50.838;7.214;2024-01-30T11:53:06;9.68;;;5.90;;
30398;SDS011;17195;50.838;7.214;2024-01-30T11:55:31;8.98;;;5.07;;
30398;SDS011;17195;50.838;7.214;2024-01-30T11:57:58;8.50;;;5.85;;
30398;SDS011;17195;50.838;7.214;2024-01-30T12:00:23;11.57;;;6.47;;
30398;SDS011;17195;50.838;7.214;2024-01-30T12:02:50;12.55;;;6.22;;
30398;SDS011;17195;50.838;7.214;2024-01-30T12:05:16;10.25;;;6.13;;
30398;SDS011;17195;50.838;7.214;2024-01-30T12:07:44;10.18;;;6.28;;
30398;SDS011;17195;50.838;7.214;2024-01-30T12:10:10;11.73;;;5.47;;
30398;SDS011;17195;50.838;7.214;2024-01-30T12:12:38;14.32;;;9.20;;
30398;SDS011;17195;50.838;7.214;2024-01-30T12:15:06;14.30;;;8.85;;
30398;SDS011;17195;50.838;7.214;2024-01-30T12:17:32;11.63;;;8.15;;
30398;SDS011;17195;50.838;7.214;2024-01-30T12:25:04;12.43;;;7.32;;
30398;SDS011;17195;50.838;7.214;2024-01-30T12:27:30;12.55;;;8.85;;
30398;SDS011;17195;50.838;7.214;2024-01-30T12:29:57;12.27;;;7.80;;
30398;SDS011;17195;50.838;7.214;2024-01-30T12:32:23;18.20;;;10.10;;
30398;SDS011;17195;50.838;7.214;2024-01-30T12:34:48;16.30;;;10.32;;
30398;SDS011;17195;50.838;7.214;2024-01-30T12:37:14;13.02;;;7.40;;
30398;SDS011;17195;50.838;7.214;2024-01-30T12:39:47;35.88;;;16.85;;
30398;SDS011;17195;50.838;7.214;2024-01-30T12:42:13;32.65;;;14.15;;
30398;SDS011;17195;50.838;7.214;2024-01-30T12:44:39;11.98;;;6.90;;
30398;SDS011;17195;50.838;7.214;2024-01-30T12:47:05;16.63;;;7.45;;
30398;SDS011;17195;50.838;7.214;2024-01-30T12:49:31;18.23;;;7.70;;
30398;SDS011;17195;50.838;7.214;2024-01-30T12:51:56;8.57;;;4.85;;
30398;SDS011;17195;50.838;7.214;2024-01-30T12:54:23;23.00;;;12.13;;
30398;SDS011;17195;50.838;7.214;2024-01-30T12:56:48;15.80;;;6.90;;
30398;SDS011;17195;50.838;7.214;2024-01-30T12:59:14;34.50;;;19.00;;
30398;SDS011;17195;50.838;7.214;2024-01-30T13:01:39;18.98;;;9.50;;
30398;SDS011;17195;50.838;7.214;2024-01-30T13:04:05;11.00;;;5.35;;
30398;SDS011;17195;50.838;7.214;2024-01-30T13:06:31;11.68;;;6.03;;
30398;SDS011;17195;50.838;7.214;2024-01-30T13:08:56;11.60;;;5.78;;
30398;SDS011;17195;50.838;7.214;2024-01-30T13:11:22;6.90;;;5.00;;
30398;SDS011;17195;50.838;7.214;2024-01-30T13:13:47;13.20;;;6.63;;
30398;SDS011;17195;50.838;7.214;2024-01-30T13:16:13;10.63;;;6.05;;
30398;SDS011;17195;50.838;7.214;2024-01-30T13:18:38;12.13;;;5.90;;
30398;SDS011;17195;50.838;7.214;2024-01-30T13:21:04;11.07;;;5.55;;
30398;SDS011;17195;50.838;7.214;2024-01-30T13:23:29;7.15;;;4.88;;
30398;SDS011;17195;50.838;7.214;2024-01-30T13:25:55;7.13;;;4.90;;
30398;SDS011;17195;50.838;7.214;2024-01-30T13:28:23;12.15;;;5.55;;
30398;SDS011;17195;50.838;7.214;2024-01-30T13:30:50;9.90;;;5.25;;
30398;SDS011;17195;50.838;7.214;2024-01-30T13:33:16;10.68;;;5.70;;
30398;SDS011;17195;50.838;7.214;2024-01-30T13:35:41;8.60;;;5.00;;
30398;SDS011;17195;50.838;7.214;2024-01-30T13:38:07;8.45;;;5.25;;
30398;SDS011;17195;50.838;7.214;2024-01-30T13:40:33;12.35;;;7.32;;
30398;SDS011;17195;50.838;7.214;2024-01-30T13:42:58;9.68;;;6.18;;
30398;SDS011;17195;50.838;7.214;2024-01-30T13:45:24;10.93;;;5.60;;
30398;SDS011;17195;50.838;7.214;2024-01-30T13:47:49;10.13;;;5.03;;
30398;SDS011;17195;50.838;7.214;2024-01-30T13:50:15;8.68;;;4.50;;
30398;SDS011;17195;50.838;7.214;2024-01-30T13:52:42;10.93;;;5.80;;
30398;SDS011;17195;50.838;7.214;2024-01-30T13:55:08;8.10;;;4.75;;
30398;SDS011;17195;50.838;7.214;2024-01-30T13:57:35;9.70;;;5.15;;
30398;SDS011;17195;50.838;7.214;2024-01-30T14:00:03;8.35;;;5.18;;
30398;SDS011;17195;50.838;7.214;2024-01-30T14:02:32;10.27;;;4.57;;
30398;SDS011;17195;50.838;7.214;2024-01-30T14:04:58;12.38;;;5.85;;
30398;SDS011;17195;50.838;7.214;2024-01-30T14:07:24;9.70;;;6.00;;
30398;SDS011;17195;50.838;7.214;2024-01-30T14:09:49;9.90;;;5.35;;
30398;SDS011;17195;50.838;7.214;2024-01-30T14:12:15;10.68;;;5.68;;
30398;SDS011;17195;50.838;7.214;2024-01-30T14:14:41;16.00;;;8.13;;
30398;SDS011;17195;50.838;7.214;2024-01-30T14:17:06;9.95;;;6.20;;
30398;SDS011;17195;50.838;7.214;2024-01-30T14:19:33;10.20;;;5.97;;
30398;SDS011;17195;50.838;7.214;2024-01-30T14:21:59;7.57;;;5.80;;
30398;SDS011;17195;50.838;7.214;2024-01-30T14:24:25;10.38;;;5.85;;
30398;SDS011;17195;50.838;7.214;2024-01-30T14:26:50;8.52;;;5.85;;
30398;SDS011;17195;50.838;7.214;2024-01-30T14:29:16;10.80;;;5.18;;
30398;SDS011;17195;50.838;7.214;2024-01-30T14:31:41;12.60;;;5.35;;
30398;SDS011;17195;50.838;7.214;2024-01-30T14:34:07;8.38;;;4.90;;